sensor_id;sensor_type;location;lat;lon;timestamp;P1;durP1;ratioP1;P2;durP2;ratioP2
4009;SDS011;2019;48.200;11.548;2022-10-16T00:00:41;7.17;;;3.50;;
4009;SDS011;2019;48.200;11.548;2022-10-16T00:03:07;4.37;;;3.10;;
4009;SDS011;2019;48.200;11.548;2022-10-16T00:05:37;3.67;;;2.90;;
4009;SDS011;2019;48.200;11.548;2022-10-16T00:08:08;6.10;;;3.80;;
4009;SDS011;2019;48.200;11.548;2022-10-16T00:10:35;3.70;;;2.97;;
4009;SDS011;2019;48.200;11.548;2022-10-16T00:13:01;11.90;;;3.60;;
4009;SDS011;2019;48.200;11.548;2022-10-16T00:15:26;4.00;;;3.10;;
4009;SDS011;2019;48.200;11.548;2022-10-16T00:17:52;5.63;;;3.17;;
4009;SDS011;2019;48.200;11.548;2022-10-16T00:20:18;5.80;;;2.97;;
4009;SDS011;2019;48.200;11.548;2022-10-16T00:22:43;5.70;;;3.30;;
4009;SDS011;2019;48.200;11.548;2022-10-16T00:25:09;8.93;;;3.67;;
4009;SDS011;2019;48.200;11.548;2022-10-16T00:27:34;4.70;;;3.20;;
4009;SDS011;2019;48.200;11.548;2022-10-16T00:30:00;4.43;;;3.27;;
4009;SDS011;2019;48.200;11.548;2022-10-16T00:32:26;6.00;;;3.20;;
4009;SDS011;2019;48.200;11.548;2022-10-16T00:34:51;7.37;;;3.20;;
4009;SDS011;2019;48.200;11.548;2022-10-16T00:37:19;6.53;;;3.20;;
4009;SDS011;2019;48.200;11.548;2022-10-16T00:39:45;3.47;;;2.63;;
4009;SDS011;2019;48.200;11.548;2022-10-16T00:42:15;10.00;;;3.30;;
4009;SDS011;2019;48.200;11.548;2022-10-16T00:47:19;4.10;;;3.13;;
4009;SDS011;2019;48.200;11.548;2022-10-16T00:49:47;6.47;;;2.50;;
4009;SDS011;2019;48.200;11.548;2022-10-16T00:52:16;4.43;;;2.60;;
4009;SDS011;2019;48.200;11.548;2022-10-16T00:54:42;5.63;;;2.87;;
4009;SDS011;2019;48.200;11.548;2022-10-16T00:57:09;8.03;;;2.90;;
4009;SDS011;2019;48.200;11.548;2022-10-16T00:59:38;6.40;;;3.00;;
4009;SDS011;2019;48.200;11.548;2022-10-16T01:02:06;4.13;;;2.50;;
4009;SDS011;2019;48.200;11.548;2022-10-16T01:04:41;5.57;;;3.33;;
4009;SDS011;2019;48.200;11.548;2022-10-16T01:10:27;6.17;;;3.40;;
4009;SDS011;2019;48.200;11.548;2022-10-16T01:13:07;5.00;;;3.20;;
4009;SDS011;2019;48.200;11.548;2022-10-16T01:15:46;5.00;;;2.50;;
4009;SDS011;2019;48.200;11.548;2022-10-16T01:18:16;5.33;;;3.13;;
4009;SDS011;2019;48.200;11.548;2022-10-16T01:20:51;3.17;;;2.63;;
4009;SDS011;2019;48.200;11.548;2022-10-16T01:23:43;6.03;;;3.37;;
4009;SDS011;2019;48.200;11.548;2022-10-16T01:29:34;8.80;;;3.20;;
4009;SDS011;2019;48.200;11.548;2022-10-16T01:32:28;4.20;;;3.00;;
4009;SDS011;2019;48.200;11.548;2022-10-16T01:35:14;3.93;;;2.93;;
4009;SDS011;2019;48.200;11.548;2022-10-16T01:37:48;6.13;;;2.40;;
4009;SDS011;2019;48.200;11.548;2022-10-16T01:40:27;5.40;;;2.80;;
4009;SDS011;2019;48.200;11.548;2022-10-16T01:43:02;6.27;;;2.93;;
4009;SDS011;2019;48.200;11.548;2022-10-16T01:45:33;4.70;;;2.93;;
4009;SDS011;2019;48.200;11.548;2022-10-16T01:48:01;8.53;;;2.60;;
4009;SDS011;2019;48.200;11.548;2022-10-16T01:50:31;4.23;;;2.13;;
4009;SDS011;2019;48.200;11.548;2022-10-16T01:53:00;4.30;;;2.33;;
4009;SDS011;2019;48.200;11.548;2022-10-16T01:55:29;12.00;;;2.30;;
4009;SDS011;2019;48.200;11.548;2022-10-16T01:57:58;5.37;;;2.83;;
4009;SDS011;2019;48.200;11.548;2022-10-16T02:00:27;6.03;;;2.40;;
4009;SDS011;2019;48.200;11.548;2022-10-16T02:02:55;2.67;;;2.20;;
4009;SDS011;2019;48.200;11.548;2022-10-16T02:05:26;3.13;;;2.30;;
4009;SDS011;2019;48.200;11.548;2022-10-16T02:07:57;4.07;;;2.40;;
4009;SDS011;2019;48.200;11.548;2022-10-16T02:10:23;4.67;;;2.37;;
4009;SDS011;2019;48.200;11.548;2022-10-16T02:12:52;7.60;;;2.37;;
4009;SDS011;2019;48.200;11.548;2022-10-16T02:15:23;4.27;;;2.67;;
4009;SDS011;2019;48.200;11.548;2022-10-16T02:17:48;4.57;;;2.53;;
4009;SDS011;2019;48.200;11.548;2022-10-16T02:20:14;2.73;;;2.23;;
4009;SDS011;2019;48.200;11.548;2022-10-16T02:22:43;4.57;;;2.80;;
4009;SDS011;2019;48.200;11.548;2022-10-16T02:25:15;4.27;;;2.40;;
4009;SDS011;2019;48.200;11.548;2022-10-16T02:27:51;4.30;;;2.17;;
4009;SDS011;2019;48.200;11.548;2022-10-16T02:30:42;7.63;;;2.30;;
4009;SDS011;2019;48.200;11.548;2022-10-16T02:33:18;6.30;;;2.60;;
4009;SDS011;2019;48.200;11.548;2022-10-16T02:35:46;3.53;;;2.10;;
4009;SDS011;2019;48.200;11.548;2022-10-16T02:38:14;5.10;;;2.10;;
4009;SDS011;2019;48.200;11.548;2022-10-16T02:40:41;4.37;;;2.63;;
4009;SDS011;2019;48.200;11.548;2022-10-16T02:43:07;9.63;;;3.20;;
4009;SDS011;2019;48.200;11.548;2022-10-16T02:45:34;3.97;;;2.77;;
4009;SDS011;2019;48.200;11.548;2022-10-16T02:48:00;4.13;;;2.60;;
4009;SDS011;2019;48.200;11.548;2022-10-16T02:50:25;3.13;;;2.33;;
4009;SDS011;2019;48.200;11.548;2022-10-16T02:52:51;4.03;;;2.70;;
4009;SDS011;2019;48.200;11.548;2022-10-16T02:55:16;3.80;;;2.30;;
4009;SDS011;2019;48.200;11.548;2022-10-16T02:57:42;3.83;;;2.73;;
4009;SDS011;2019;48.200;11.548;2022-10-16T03:00:12;7.30;;;3.27;;
4009;SDS011;2019;48.200;11.548;2022-10-16T03:02:39;5.33;;;2.33;;
4009;SDS011;2019;48.200;11.548;2022-10-16T03:05:05;7.30;;;2.70;;
4009;SDS011;2019;48.200;11.548;2022-10-16T03:07:31;3.07;;;2.40;;
4009;SDS011;2019;48.200;11.548;2022-10-16T03:09:57;4.10;;;2.60;;
4009;SDS011;2019;48.200;11.548;2022-10-16T03:12:25;3.40;;;2.17;;
4009;SDS011;2019;48.200;11.548;2022-10-16T03:14:51;3.20;;;2.30;;
4009;SDS011;2019;48.200;11.548;2022-10-16T03:17:17;5.20;;;2.20;;
4009;SDS011;2019;48.200;11.548;2022-10-16T03:19:43;2.87;;;1.93;;
4009;SDS011;2019;48.200;11.548;2022-10-16T03:22:08;3.60;;;2.50;;
4009;SDS011;2019;48.200;11.548;2022-10-16T03:24:34;3.20;;;2.23;;
4009;SDS011;2019;48.200;11.548;2022-10-16T03:27:00;4.63;;;2.30;;
4009;SDS011;2019;48.200;11.548;2022-10-16T03:29:26;3.10;;;2.17;;
4009;SDS011;2019;48.200;11.548;2022-10-16T03:31:52;4.63;;;3.00;;
4009;SDS011;2019;48.200;11.548;2022-10-16T03:34:18;5.10;;;2.53;;
4009;SDS011;2019;48.200;11.548;2022-10-16T03:36:43;3.80;;;2.00;;
4009;SDS011;2019;48.200;11.548;2022-10-16T03:39:09;3.60;;;2.47;;
4009;SDS011;2019;48.200;11.548;2022-10-16T03:41:35;5.90;;;2.30;;
4009;SDS011;2019;48.200;11.548;2022-10-16T03:44:00;6.90;;;2.53;;
4009;SDS011;2019;48.200;11.548;2022-10-16T03:46:26;5.53;;;2.10;;
4009;SDS011;2019;48.200;11.548;2022-10-16T03:48:52;3.00;;;2.43;;
4009;SDS011;2019;48.200;11.548;2022-10-16T03:51:17;3.30;;;1.90;;
4009;SDS011;2019;48.200;11.548;2022-10-16T03:53:43;5.07;;;3.13;;
4009;SDS011;2019;48.200;11.548;2022-10-16T03:56:08;7.83;;;2.60;;
4009;SDS011;2019;48.200;11.548;2022-10-16T03:58:34;3.43;;;2.50;;
4009;SDS011;2019;48.200;11.548;2022-10-16T04:00:59;3.90;;;2.40;;
4009;SDS011;2019;48.200;11.548;2022-10-16T04:03:25;6.20;;;2.30;;
4009;SDS011;2019;48.200;11.548;2022-10-16T04:05:51;3.23;;;2.40;;
4009;SDS011;2019;48.200;11.548;2022-10-16T04:08:16;4.63;;;2.37;;
4009;SDS011;2019;48.200;11.548;2022-10-16T04:10:43;3.67;;;2.47;;
4009;SDS011;2019;48.200;11.548;2022-10-16T04:13:08;3.40;;;2.20;;
4009;SDS011;2019;48.200;11.548;2022-10-16T04:15:34;3.20;;;2.10;;
4009;SDS011;2019;48.200;11.548;2022-10-16T04:18:00;4.10;;;2.07;;
4009;SDS011;2019;48.200;11.548;2022-10-16T04:20:26;3.33;;;2.20;;
4009;SDS011;2019;48.200;11.548;2022-10-16T04:22:51;4.03;;;2.80;;
4009;SDS011;2019;48.200;11.548;2022-10-16T04:25:17;3.50;;;1.87;;
4009;SDS011;2019;48.200;11.548;2022-10-16T04:27:42;6.07;;;1.97;;
4009;SDS011;2019;48.200;11.548;2022-10-16T04:30:10;4.90;;;2.33;;
4009;SDS011;2019;48.200;11.548;2022-10-16T04:32:36;4.63;;;3.30;;
4009;SDS011;2019;48.200;11.548;2022-10-16T04:35:01;3.70;;;2.43;;
4009;SDS011;2019;48.200;11.548;2022-10-16T04:37:27;8.83;;;2.60;;
4009;SDS011;2019;48.200;11.548;2022-10-16T04:39:53;2.57;;;1.97;;
4009;SDS011;2019;48.200;11.548;2022-10-16T04:42:20;4.67;;;2.53;;
4009;SDS011;2019;48.200;11.548;2022-10-16T04:44:46;9.37;;;2.30;;
4009;SDS011;2019;48.200;11.548;2022-10-16T04:47:11;6.10;;;2.63;;
4009;SDS011;2019;48.200;11.548;2022-10-16T04:49:38;3.53;;;2.70;;
4009;SDS011;2019;48.200;11.548;2022-10-16T04:52:04;3.80;;;2.30;;
4009;SDS011;2019;48.200;11.548;2022-10-16T04:54:30;4.30;;;2.30;;
4009;SDS011;2019;48.200;11.548;2022-10-16T04:56:55;3.93;;;2.80;;
4009;SDS011;2019;48.200;11.548;2022-10-16T04:59:21;3.20;;;2.47;;
4009;SDS011;2019;48.200;11.548;2022-10-16T05:01:47;3.43;;;2.43;;
4009;SDS011;2019;48.200;11.548;2022-10-16T05:04:13;7.30;;;2.43;;
4009;SDS011;2019;48.200;11.548;2022-10-16T05:06:40;3.60;;;2.50;;
4009;SDS011;2019;48.200;11.548;2022-10-16T05:09:06;3.53;;;2.30;;
4009;SDS011;2019;48.200;11.548;2022-10-16T05:11:32;3.93;;;2.27;;
4009;SDS011;2019;48.200;11.548;2022-10-16T05:13:58;4.10;;;2.30;;
4009;SDS011;2019;48.200;11.548;2022-10-16T05:16:24;4.23;;;2.27;;
4009;SDS011;2019;48.200;11.548;2022-10-16T05:18:51;4.57;;;2.50;;
4009;SDS011;2019;48.200;11.548;2022-10-16T05:21:17;6.53;;;2.70;;
4009;SDS011;2019;48.200;11.548;2022-10-16T05:23:42;4.50;;;2.90;;
4009;SDS011;2019;48.200;11.548;2022-10-16T05:26:08;6.10;;;2.83;;
4009;SDS011;2019;48.200;11.548;2022-10-16T05:28:34;5.03;;;2.90;;
4009;SDS011;2019;48.200;11.548;2022-10-16T05:31:03;4.73;;;2.50;;
4009;SDS011;2019;48.200;11.548;2022-10-16T05:33:33;4.00;;;2.70;;
4009;SDS011;2019;48.200;11.548;2022-10-16T05:36:05;3.60;;;2.50;;
4009;SDS011;2019;48.200;11.548;2022-10-16T05:38:33;4.77;;;2.93;;
4009;SDS011;2019;48.200;11.548;2022-10-16T05:40:59;4.57;;;2.00;;
4009;SDS011;2019;48.200;11.548;2022-10-16T05:43:26;4.60;;;2.67;;
4009;SDS011;2019;48.200;11.548;2022-10-16T05:45:53;6.03;;;2.50;;
4009;SDS011;2019;48.200;11.548;2022-10-16T05:48:23;3.40;;;2.63;;
4009;SDS011;2019;48.200;11.548;2022-10-16T05:50:49;3.40;;;2.23;;
4009;SDS011;2019;48.200;11.548;2022-10-16T05:53:26;7.13;;;2.60;;
4009;SDS011;2019;48.200;11.548;2022-10-16T05:55:53;3.17;;;2.50;;
4009;SDS011;2019;48.200;11.548;2022-10-16T05:58:19;3.83;;;2.40;;
4009;SDS011;2019;48.200;11.548;2022-10-16T06:00:52;6.10;;;2.73;;
4009;SDS011;2019;48.200;11.548;2022-10-16T06:03:25;10.53;;;2.83;;
4009;SDS011;2019;48.200;11.548;2022-10-16T06:05:51;5.30;;;3.17;;
4009;SDS011;2019;48.200;11.548;2022-10-16T06:08:17;6.93;;;3.20;;
4009;SDS011;2019;48.200;11.548;2022-10-16T06:10:45;3.00;;;2.57;;
4009;SDS011;2019;48.200;11.548;2022-10-16T06:13:12;7.23;;;3.20;;
4009;SDS011;2019;48.200;11.548;2022-10-16T06:15:39;6.50;;;3.50;;
4009;SDS011;2019;48.200;11.548;2022-10-16T06:18:06;6.90;;;2.97;;
4009;SDS011;2019;48.200;11.548;2022-10-16T06:20:35;5.10;;;2.97;;
4009;SDS011;2019;48.200;11.548;2022-10-16T06:23:01;7.43;;;3.20;;
4009;SDS011;2019;48.200;11.548;2022-10-16T06:25:27;7.30;;;3.23;;
4009;SDS011;2019;48.200;11.548;2022-10-16T06:27:52;9.73;;;3.70;;
4009;SDS011;2019;48.200;11.548;2022-10-16T06:30:18;3.97;;;3.00;;
4009;SDS011;2019;48.200;11.548;2022-10-16T06:32:44;3.97;;;2.90;;
4009;SDS011;2019;48.200;11.548;2022-10-16T06:35:09;5.87;;;3.40;;
4009;SDS011;2019;48.200;11.548;2022-10-16T06:37:35;4.30;;;3.23;;
4009;SDS011;2019;48.200;11.548;2022-10-16T06:40:00;4.50;;;2.83;;
4009;SDS011;2019;48.200;11.548;2022-10-16T06:42:29;5.60;;;3.20;;
4009;SDS011;2019;48.200;11.548;2022-10-16T06:44:54;5.67;;;3.03;;
4009;SDS011;2019;48.200;11.548;2022-10-16T06:47:20;5.90;;;3.23;;
4009;SDS011;2019;48.200;11.548;2022-10-16T06:49:46;4.93;;;3.40;;
4009;SDS011;2019;48.200;11.548;2022-10-16T06:52:11;6.80;;;3.40;;
4009;SDS011;2019;48.200;11.548;2022-10-16T06:54:37;5.77;;;3.57;;
4009;SDS011;2019;48.200;11.548;2022-10-16T06:57:02;5.80;;;3.20;;
4009;SDS011;2019;48.200;11.548;2022-10-16T06:59:28;5.77;;;3.33;;
4009;SDS011;2019;48.200;11.548;2022-10-16T07:01:53;5.00;;;3.20;;
4009;SDS011;2019;48.200;11.548;2022-10-16T07:04:19;8.77;;;3.37;;
4009;SDS011;2019;48.200;11.548;2022-10-16T07:06:45;5.70;;;3.40;;
4009;SDS011;2019;48.200;11.548;2022-10-16T07:09:11;8.27;;;4.10;;
4009;SDS011;2019;48.200;11.548;2022-10-16T07:11:37;4.40;;;3.20;;
4009;SDS011;2019;48.200;11.548;2022-10-16T07:14:04;7.47;;;3.13;;
4009;SDS011;2019;48.200;11.548;2022-10-16T07:16:34;4.10;;;3.50;;
4009;SDS011;2019;48.200;11.548;2022-10-16T07:19:00;9.53;;;4.23;;
4009;SDS011;2019;48.200;11.548;2022-10-16T07:21:28;7.70;;;4.40;;
4009;SDS011;2019;48.200;11.548;2022-10-16T07:23:56;4.63;;;3.43;;
4009;SDS011;2019;48.200;11.548;2022-10-16T07:26:23;5.83;;;3.80;;
4009;SDS011;2019;48.200;11.548;2022-10-16T07:28:50;4.83;;;3.83;;
4009;SDS011;2019;48.200;11.548;2022-10-16T07:31:16;6.97;;;4.20;;
4009;SDS011;2019;48.200;11.548;2022-10-16T07:33:43;7.10;;;4.57;;
4009;SDS011;2019;48.200;11.548;2022-10-16T07:36:10;7.33;;;5.50;;
4009;SDS011;2019;48.200;11.548;2022-10-16T07:38:36;10.10;;;6.10;;
4009;SDS011;2019;48.200;11.548;2022-10-16T07:41:04;8.30;;;6.60;;
4009;SDS011;2019;48.200;11.548;2022-10-16T07:43:34;11.50;;;7.27;;
4009;SDS011;2019;48.200;11.548;2022-10-16T07:46:00;11.63;;;6.40;;
4009;SDS011;2019;48.200;11.548;2022-10-16T07:48:26;11.60;;;6.60;;
4009;SDS011;2019;48.200;11.548;2022-10-16T07:50:57;8.50;;;5.83;;
4009;SDS011;2019;48.200;11.548;2022-10-16T07:53:24;6.63;;;5.00;;
4009;SDS011;2019;48.200;11.548;2022-10-16T07:55:50;6.33;;;4.43;;
4009;SDS011;2019;48.200;11.548;2022-10-16T07:58:15;8.43;;;4.80;;
4009;SDS011;2019;48.200;11.548;2022-10-16T08:00:41;5.50;;;4.07;;
4009;SDS011;2019;48.200;11.548;2022-10-16T08:03:07;8.53;;;4.17;;
4009;SDS011;2019;48.200;11.548;2022-10-16T08:05:33;4.60;;;3.10;;
4009;SDS011;2019;48.200;11.548;2022-10-16T08:07:59;10.07;;;3.40;;
4009;SDS011;2019;48.200;11.548;2022-10-16T08:10:26;6.03;;;3.47;;
4009;SDS011;2019;48.200;11.548;2022-10-16T08:12:52;6.10;;;3.30;;
4009;SDS011;2019;48.200;11.548;2022-10-16T08:15:18;3.80;;;2.83;;
4009;SDS011;2019;48.200;11.548;2022-10-16T08:17:44;5.10;;;3.57;;
4009;SDS011;2019;48.200;11.548;2022-10-16T08:20:18;5.23;;;3.77;;
4009;SDS011;2019;48.200;11.548;2022-10-16T08:22:44;4.20;;;2.90;;
4009;SDS011;2019;48.200;11.548;2022-10-16T08:25:10;6.13;;;3.30;;
4009;SDS011;2019;48.200;11.548;2022-10-16T08:27:35;4.50;;;2.80;;
4009;SDS011;2019;48.200;11.548;2022-10-16T08:30:01;5.20;;;3.30;;
4009;SDS011;2019;48.200;11.548;2022-10-16T08:32:26;5.73;;;3.03;;
4009;SDS011;2019;48.200;11.548;2022-10-16T08:34:52;3.90;;;2.60;;
4009;SDS011;2019;48.200;11.548;2022-10-16T08:37:17;3.43;;;2.73;;
4009;SDS011;2019;48.200;11.548;2022-10-16T08:39:43;5.20;;;3.30;;
4009;SDS011;2019;48.200;11.548;2022-10-16T08:42:21;6.73;;;2.67;;
4009;SDS011;2019;48.200;11.548;2022-10-16T08:50:41;7.43;;;2.63;;
4009;SDS011;2019;48.200;11.548;2022-10-16T08:53:09;4.03;;;2.63;;
4009;SDS011;2019;48.200;11.548;2022-10-16T08:55:41;4.80;;;3.10;;
4009;SDS011;2019;48.200;11.548;2022-10-16T08:58:15;3.77;;;2.90;;
4009;SDS011;2019;48.200;11.548;2022-10-16T09:00:43;10.50;;;3.20;;
4009;SDS011;2019;48.200;11.548;2022-10-16T09:11:36;3.30;;;2.80;;
4009;SDS011;2019;48.200;11.548;2022-10-16T09:19:56;3.40;;;2.57;;
4009;SDS011;2019;48.200;11.548;2022-10-16T09:22:44;3.93;;;2.93;;
4009;SDS011;2019;48.200;11.548;2022-10-16T09:25:11;3.33;;;2.60;;
4009;SDS011;2019;48.200;11.548;2022-10-16T09:27:39;3.50;;;2.70;;
4009;SDS011;2019;48.200;11.548;2022-10-16T09:30:13;3.17;;;2.50;;
4009;SDS011;2019;48.200;11.548;2022-10-16T09:32:41;4.30;;;2.73;;
4009;SDS011;2019;48.200;11.548;2022-10-16T09:35:13;2.83;;;2.20;;
4009;SDS011;2019;48.200;11.548;2022-10-16T09:37:42;2.53;;;2.10;;
4009;SDS011;2019;48.200;11.548;2022-10-16T09:42:52;2.93;;;2.60;;
4009;SDS011;2019;48.200;11.548;2022-10-16T09:45:26;4.33;;;2.50;;
4009;SDS011;2019;48.200;11.548;2022-10-16T09:47:52;3.60;;;3.00;;
4009;SDS011;2019;48.200;11.548;2022-10-16T09:50:25;3.07;;;2.77;;
4009;SDS011;2019;48.200;11.548;2022-10-16T09:53:05;3.17;;;2.27;;
4009;SDS011;2019;48.200;11.548;2022-10-16T09:55:35;5.70;;;2.73;;
4009;SDS011;2019;48.200;11.548;2022-10-16T09:58:01;8.73;;;2.70;;
4009;SDS011;2019;48.200;11.548;2022-10-16T10:00:26;7.20;;;2.70;;
4009;SDS011;2019;48.200;11.548;2022-10-16T10:02:53;3.73;;;2.80;;
4009;SDS011;2019;48.200;11.548;2022-10-16T10:05:24;3.20;;;2.70;;
4009;SDS011;2019;48.200;11.548;2022-10-16T10:08:01;3.83;;;2.30;;
4009;SDS011;2019;48.200;11.548;2022-10-16T10:10:32;5.13;;;2.60;;
4009;SDS011;2019;48.200;11.548;2022-10-16T10:12:59;4.33;;;2.83;;
4009;SDS011;2019;48.200;11.548;2022-10-16T10:15:25;4.60;;;2.73;;
4009;SDS011;2019;48.200;11.548;2022-10-16T10:17:57;4.10;;;2.53;;
4009;SDS011;2019;48.200;11.548;2022-10-16T10:20:35;6.73;;;2.70;;
4009;SDS011;2019;48.200;11.548;2022-10-16T10:23:23;3.83;;;2.57;;
4009;SDS011;2019;48.200;11.548;2022-10-16T10:38:56;2.27;;;1.93;;
4009;SDS011;2019;48.200;11.548;2022-10-16T10:47:45;2.67;;;2.10;;
4009;SDS011;2019;48.200;11.548;2022-10-16T10:55:33;2.37;;;1.80;;
4009;SDS011;2019;48.200;11.548;2022-10-16T10:58:23;2.23;;;1.93;;
4009;SDS011;2019;48.200;11.548;2022-10-16T11:01:13;3.03;;;1.50;;
4009;SDS011;2019;48.200;11.548;2022-10-16T11:03:53;2.93;;;1.73;;
4009;SDS011;2019;48.200;11.548;2022-10-16T11:06:32;2.50;;;1.63;;
4009;SDS011;2019;48.200;11.548;2022-10-16T11:09:13;2.53;;;1.77;;
4009;SDS011;2019;48.200;11.548;2022-10-16T11:11:51;3.30;;;1.53;;
4009;SDS011;2019;48.200;11.548;2022-10-16T11:17:10;2.90;;;1.73;;
4009;SDS011;2019;48.200;11.548;2022-10-16T11:22:27;2.97;;;1.53;;
4009;SDS011;2019;48.200;11.548;2022-10-16T11:25:16;3.73;;;2.00;;
4009;SDS011;2019;48.200;11.548;2022-10-16T11:35:50;2.37;;;1.40;;
4009;SDS011;2019;48.200;11.548;2022-10-16T11:38:37;1.80;;;1.37;;
4009;SDS011;2019;48.200;11.548;2022-10-16T11:46:35;3.70;;;1.60;;
4009;SDS011;2019;48.200;11.548;2022-10-16T11:49:06;1.53;;;1.27;;
4009;SDS011;2019;48.200;11.548;2022-10-16T11:51:38;2.37;;;1.47;;
4009;SDS011;2019;48.200;11.548;2022-10-16T11:56:59;2.50;;;1.77;;
4009;SDS011;2019;48.200;11.548;2022-10-16T12:05:15;1.83;;;1.23;;
4009;SDS011;2019;48.200;11.548;2022-10-16T12:07:47;3.03;;;1.83;;
4009;SDS011;2019;48.200;11.548;2022-10-16T12:10:28;1.70;;;1.33;;
4009;SDS011;2019;48.200;11.548;2022-10-16T12:12:57;1.70;;;1.40;;
4009;SDS011;2019;48.200;11.548;2022-10-16T12:17:50;2.00;;;1.47;;
4009;SDS011;2019;48.200;11.548;2022-10-16T12:22:48;2.70;;;1.70;;
4009;SDS011;2019;48.200;11.548;2022-10-16T12:25:20;3.10;;;1.63;;
4009;SDS011;2019;48.200;11.548;2022-10-16T12:27:54;2.10;;;1.53;;
4009;SDS011;2019;48.200;11.548;2022-10-16T12:30:30;2.20;;;1.33;;
4009;SDS011;2019;48.200;11.548;2022-10-16T12:33:16;1.73;;;1.30;;
4009;SDS011;2019;48.200;11.548;2022-10-16T12:35:50;4.70;;;1.50;;
4009;SDS011;2019;48.200;11.548;2022-10-16T12:38:58;2.20;;;1.70;;
4009;SDS011;2019;48.200;11.548;2022-10-16T12:41:24;2.50;;;1.10;;
4009;SDS011;2019;48.200;11.548;2022-10-16T12:43:54;2.17;;;1.50;;
4009;SDS011;2019;48.200;11.548;2022-10-16T12:46:21;2.37;;;1.47;;
4009;SDS011;2019;48.200;11.548;2022-10-16T12:48:49;2.00;;;1.30;;
4009;SDS011;2019;48.200;11.548;2022-10-16T12:51:32;2.77;;;1.50;;
4009;SDS011;2019;48.200;11.548;2022-10-16T12:54:04;4.60;;;1.60;;
4009;SDS011;2019;48.200;11.548;2022-10-16T13:04:35;1.40;;;1.10;;
4009;SDS011;2019;48.200;11.548;2022-10-16T13:10:39;1.40;;;1.00;;
4009;SDS011;2019;48.200;11.548;2022-10-16T13:30:02;2.23;;;0.90;;
4009;SDS011;2019;48.200;11.548;2022-10-16T13:32:53;3.43;;;1.00;;
4009;SDS011;2019;48.200;11.548;2022-10-16T13:35:22;2.10;;;1.10;;
4009;SDS011;2019;48.200;11.548;2022-10-16T13:37:50;1.97;;;1.40;;
4009;SDS011;2019;48.200;11.548;2022-10-16T13:40:21;1.93;;;1.20;;
4009;SDS011;2019;48.200;11.548;2022-10-16T13:42:48;1.70;;;1.00;;
4009;SDS011;2019;48.200;11.548;2022-10-16T13:45:19;1.83;;;1.00;;
4009;SDS011;2019;48.200;11.548;2022-10-16T13:47:46;1.47;;;1.10;;
4009;SDS011;2019;48.200;11.548;2022-10-16T13:50:13;3.63;;;1.10;;
4009;SDS011;2019;48.200;11.548;2022-10-16T13:52:41;1.40;;;1.00;;
4009;SDS011;2019;48.200;11.548;2022-10-16T13:55:11;2.20;;;1.20;;
4009;SDS011;2019;48.200;11.548;2022-10-16T13:57:37;7.60;;;1.17;;
4009;SDS011;2019;48.200;11.548;2022-10-16T14:00:03;2.67;;;1.73;;
4009;SDS011;2019;48.200;11.548;2022-10-16T14:02:45;2.33;;;1.57;;
4009;SDS011;2019;48.200;11.548;2022-10-16T14:05:18;1.37;;;1.00;;
4009;SDS011;2019;48.200;11.548;2022-10-16T14:07:43;3.00;;;1.20;;
4009;SDS011;2019;48.200;11.548;2022-10-16T14:10:23;2.17;;;1.10;;
4009;SDS011;2019;48.200;11.548;2022-10-16T14:13:07;1.30;;;1.20;;
4009;SDS011;2019;48.200;11.548;2022-10-16T14:15:38;2.33;;;1.23;;
4009;SDS011;2019;48.200;11.548;2022-10-16T14:18:04;6.33;;;1.33;;
4009;SDS011;2019;48.200;11.548;2022-10-16T14:20:31;2.13;;;1.00;;
4009;SDS011;2019;48.200;11.548;2022-10-16T14:22:59;1.77;;;1.10;;
4009;SDS011;2019;48.200;11.548;2022-10-16T14:25:30;6.07;;;1.20;;
4009;SDS011;2019;48.200;11.548;2022-10-16T14:30:26;2.30;;;1.13;;
4009;SDS011;2019;48.200;11.548;2022-10-16T14:33:38;3.53;;;1.47;;
4009;SDS011;2019;48.200;11.548;2022-10-16T14:36:02;1.60;;;1.07;;
4009;SDS011;2019;48.200;11.548;2022-10-16T14:38:34;1.83;;;1.03;;
4009;SDS011;2019;48.200;11.548;2022-10-16T14:41:00;1.40;;;0.87;;
4009;SDS011;2019;48.200;11.548;2022-10-16T14:43:36;1.20;;;0.90;;
4009;SDS011;2019;48.200;11.548;2022-10-16T14:46:06;6.63;;;1.20;;
4009;SDS011;2019;48.200;11.548;2022-10-16T14:48:42;2.20;;;1.80;;
4009;SDS011;2019;48.200;11.548;2022-10-16T14:51:14;5.80;;;3.10;;
4009;SDS011;2019;48.200;11.548;2022-10-16T14:53:40;13.77;;;3.00;;
4009;SDS011;2019;48.200;11.548;2022-10-16T14:56:07;3.60;;;1.57;;
4009;SDS011;2019;48.200;11.548;2022-10-16T14:58:34;2.53;;;1.70;;
4009;SDS011;2019;48.200;11.548;2022-10-16T15:01:00;2.00;;;1.33;;
4009;SDS011;2019;48.200;11.548;2022-10-16T15:03:25;4.27;;;1.70;;
4009;SDS011;2019;48.200;11.548;2022-10-16T15:05:51;3.50;;;1.10;;
4009;SDS011;2019;48.200;11.548;2022-10-16T15:08:17;2.87;;;1.20;;
4009;SDS011;2019;48.200;11.548;2022-10-16T15:10:43;2.40;;;1.10;;
4009;SDS011;2019;48.200;11.548;2022-10-16T15:13:11;2.97;;;1.80;;
4009;SDS011;2019;48.200;11.548;2022-10-16T15:15:39;2.20;;;1.70;;
4009;SDS011;2019;48.200;11.548;2022-10-16T15:18:09;1.60;;;1.30;;
4009;SDS011;2019;48.200;11.548;2022-10-16T15:20:36;3.77;;;1.60;;
4009;SDS011;2019;48.200;11.548;2022-10-16T15:23:14;2.50;;;1.50;;
4009;SDS011;2019;48.200;11.548;2022-10-16T15:25:45;2.80;;;1.70;;
4009;SDS011;2019;48.200;11.548;2022-10-16T15:28:16;3.53;;;1.50;;
4009;SDS011;2019;48.200;11.548;2022-10-16T15:30:43;3.30;;;2.13;;
4009;SDS011;2019;48.200;11.548;2022-10-16T15:33:14;3.23;;;1.93;;
4009;SDS011;2019;48.200;11.548;2022-10-16T15:35:41;4.43;;;2.30;;
4009;SDS011;2019;48.200;11.548;2022-10-16T15:38:11;2.60;;;1.80;;
4009;SDS011;2019;48.200;11.548;2022-10-16T15:40:38;2.80;;;2.00;;
4009;SDS011;2019;48.200;11.548;2022-10-16T15:43:04;4.87;;;2.20;;
4009;SDS011;2019;48.200;11.548;2022-10-16T15:45:30;6.53;;;2.27;;
4009;SDS011;2019;48.200;11.548;2022-10-16T15:47:56;3.43;;;2.00;;
4009;SDS011;2019;48.200;11.548;2022-10-16T15:50:21;7.10;;;2.20;;
4009;SDS011;2019;48.200;11.548;2022-10-16T15:52:47;3.57;;;1.90;;
4009;SDS011;2019;48.200;11.548;2022-10-16T15:55:13;4.30;;;2.53;;
4009;SDS011;2019;48.200;11.548;2022-10-16T15:57:39;6.03;;;2.20;;
4009;SDS011;2019;48.200;11.548;2022-10-16T16:00:08;2.70;;;2.00;;
4009;SDS011;2019;48.200;11.548;2022-10-16T16:02:36;4.13;;;2.13;;
4009;SDS011;2019;48.200;11.548;2022-10-16T16:05:02;3.30;;;2.57;;
4009;SDS011;2019;48.200;11.548;2022-10-16T16:07:28;7.43;;;2.90;;
4009;SDS011;2019;48.200;11.548;2022-10-16T16:09:57;6.30;;;2.70;;
4009;SDS011;2019;48.200;11.548;2022-10-16T16:12:22;7.63;;;2.80;;
4009;SDS011;2019;48.200;11.548;2022-10-16T16:14:48;4.20;;;2.70;;
4009;SDS011;2019;48.200;11.548;2022-10-16T16:17:14;4.10;;;2.40;;
4009;SDS011;2019;48.200;11.548;2022-10-16T16:19:39;3.60;;;2.57;;
4009;SDS011;2019;48.200;11.548;2022-10-16T16:22:05;7.87;;;3.40;;
4009;SDS011;2019;48.200;11.548;2022-10-16T16:24:30;9.27;;;3.20;;
4009;SDS011;2019;48.200;11.548;2022-10-16T16:26:56;8.37;;;2.97;;
4009;SDS011;2019;48.200;11.548;2022-10-16T16:29:22;5.47;;;3.30;;
4009;SDS011;2019;48.200;11.548;2022-10-16T16:31:47;10.10;;;2.90;;
4009;SDS011;2019;48.200;11.548;2022-10-16T16:34:14;5.00;;;2.80;;
4009;SDS011;2019;48.200;11.548;2022-10-16T16:36:39;4.00;;;3.13;;
4009;SDS011;2019;48.200;11.548;2022-10-16T16:39:05;8.47;;;3.57;;
4009;SDS011;2019;48.200;11.548;2022-10-16T16:41:32;4.40;;;2.70;;
4009;SDS011;2019;48.200;11.548;2022-10-16T16:44:02;6.63;;;2.30;;
4009;SDS011;2019;48.200;11.548;2022-10-16T16:46:32;5.23;;;2.67;;
4009;SDS011;2019;48.200;11.548;2022-10-16T16:48:58;4.07;;;2.57;;
4009;SDS011;2019;48.200;11.548;2022-10-16T16:51:25;4.33;;;2.57;;
4009;SDS011;2019;48.200;11.548;2022-10-16T16:53:52;7.23;;;2.87;;
4009;SDS011;2019;48.200;11.548;2022-10-16T16:56:18;9.13;;;3.00;;
4009;SDS011;2019;48.200;11.548;2022-10-16T16:58:45;7.40;;;3.00;;
4009;SDS011;2019;48.200;11.548;2022-10-16T17:01:13;7.23;;;2.80;;
4009;SDS011;2019;48.200;11.548;2022-10-16T17:03:41;7.70;;;2.90;;
4009;SDS011;2019;48.200;11.548;2022-10-16T17:06:11;5.73;;;3.17;;
4009;SDS011;2019;48.200;11.548;2022-10-16T17:08:39;5.27;;;2.87;;
4009;SDS011;2019;48.200;11.548;2022-10-16T17:11:05;9.63;;;2.90;;